Zaliv Vostok — A8RM6 — position and weather

sailwx.info

Track history (hours):
 
Tides and Currents Weather Stations Pressure Air Temp Water Temp Dewpoint Dewpoint Depression Visibility Wind Speed Wind Dir Waves Ship Positions

Zaliv Vostok

Last reported at 2016-Feb-07 15:28 UTC. Time now 2016-Feb-14 03:49 UTC.
Position N 41°54' W 009°57'.

Length 243 m; draft 14.8 m.

Type: Tanker. MMSI: 636014127.

Date/timePositionNaut miles runAvg speedWind from/ knotsBaromVisibWave heightAir tempDewpointWater temp
2016-Feb-07 15:28N 41°54' W 009°57'8 8.5
2016-Feb-07 14:31N 41°46' W 009°56'11 9.0
2016-Feb-07 13:19N 41°35' W 009°56'7 8.8
2016-Feb-07 12:31N 41°28' W 009°57'9 8.5
2016-Feb-07 11:28N 41°19' W 009°57'8 8.4
2016-Feb-07 10:31N 41°11' W 009°57'9 8.8
2016-Feb-07 09:31N 41°02' W 009°56'10 9.6
2016-Feb-07 08:31N 40°53' W 009°57'19 9.2
2016-Feb-07 06:28N 40°34' W 009°57'9 9.2
2016-Feb-07 05:31N 40°25' W 009°57'10 9.5
2016-Feb-07 04:31N 40°16' W 009°57'10 9.7
2016-Feb-07 03:31N 40°06' W 009°57'10 9.9
2016-Feb-07 02:28N 39°56' W 009°57'2010.2
2016-Feb-07 00:33N 39°36' W 009°57'10 9.7
2016-Feb-06 23:30N 39°26' W 009°57'1010.9
2016-Feb-06 22:33N 39°15' W 009°57'1110.9
2016-Feb-06 21:33N 39°05' W 009°56'1111.2
2016-Feb-06 20:33N 38°53' W 009°56'1211.6
2016-Feb-06 19:33N 38°42' W 009°56'1211.8
2016-Feb-06 18:33N 38°30' W 009°53'1212.4
2016-Feb-06 17:33N 38°18' W 009°49'1513.4
2016-Feb-06 16:28N 38°04' W 009°45'1111.6
2016-Feb-06 15:30N 37°53' W 009°42'1212.6
2016-Feb-06 14:32N 37°41' W 009°38'1413.7
2016-Feb-06 13:31N 37°28' W 009°34'1312.4
2016-Feb-06 12:28N 37°15' W 009°31'1313.1
2016-Feb-06 11:28N 37°02' W 009°27'1212.3
2016-Feb-06 10:31N 36°51' W 009°24'1312.8
2016-Feb-06 09:31N 36°42' W 009°13'1211.7
2016-Feb-06 08:28N 36°39' W 008°58'1111.5
2016-Feb-06 07:29N 36°37' W 008°44'1313.0
2016-Feb-06 06:31N 36°35' W 008°29'1312.7
2016-Feb-06 05:31N 36°31' W 008°14'13412.1
2016-Feb-05 18:23N 35°59' W 005°32'8 9.8
2016-Feb-05 17:33N 36°02' W 005°23'14 3.6
2016-Feb-05 13:33N 35°54' W 005°08'2 1.8
2016-Feb-05 12:30N 35°56' W 005°08'2 1.6
2016-Feb-05 11:29N 35°57' W 005°08'1 1.5
2016-Feb-05 10:32N 35°59' W 005°08'1 1.2
2016-Feb-05 09:25N 36°00' W 005°09'1 1.2
2016-Feb-05 08:30N 36°01' W 005°09'1 1.1
2016-Feb-05 07:33N 36°02' W 005°10'1 1.0
2016-Feb-05 06:33N 36°03' W 005°10'0 0.4
2016-Feb-05 05:33N 36°03' W 005°11'1 0.7
2016-Feb-05 04:32N 36°03' W 005°10'1 0.7
2016-Feb-05 03:33N 36°04' W 005°09'1 0.7
2016-Feb-05 02:33N 36°04' W 005°09'1 0.9
2016-Feb-05 01:33N 36°05' W 005°09'1 0.6
2016-Feb-05 00:33N 36°06' W 005°09'1 0.6
2016-Feb-04 23:32N 36°06' W 005°09'1 0.6
2016-Feb-04 22:24N 36°07' W 005°09'0 0.1
2016-Feb-04 21:33N 36°07' W 005°09'0 0.3
2016-Feb-04 20:20N 36°07' W 005°09'1 0.8
2016-Feb-04 19:21N 36°06' W 005°08'4 0.3
2016-Feb-04 08:33N 36°07' W 005°12'5 4.2
2016-Feb-04 07:28N 36°07' W 005°18'0 0.0
2016-Feb-04 06:28N 36°07' W 005°18'0 0.0
2016-Feb-04 05:33N 36°07' W 005°18'0 0.0
2016-Feb-04 04:33N 36°07' W 005°18'0 0.0
2016-Feb-04 03:32N 36°07' W 005°18'0 0.0
2016-Feb-04 02:32N 36°07' W 005°18'0 0.0
2016-Feb-04 01:32N 36°07' W 005°18'0 0.0
2016-Feb-04 00:31N 36°07' W 005°18'0 0.0
2016-Feb-03 23:31N 36°07' W 005°18'0 0.0
2016-Feb-03 22:30N 36°07' W 005°18'0 0.0
2016-Feb-03 21:33N 36°07' W 005°18'0 0.0
2016-Feb-03 20:32N 36°07' W 005°18'0 0.0
2016-Feb-03 19:29N 36°07' W 005°18'0 0.0
2016-Feb-03 18:32N 36°07' W 005°18'0 0.1
2016-Feb-03 17:31N 36°07' W 005°18'0 0.0
2016-Feb-03 16:31N 36°07' W 005°18'0 0.0
2016-Feb-03 15:33N 36°07' W 005°18'0 0.0
2016-Feb-03 13:20N 36°07' W 005°18'0 0.0
2016-Feb-03 12:23N 36°07' W 005°18'0 0.1
2016-Feb-03 11:32N 36°07' W 005°18'0 0.0
2016-Feb-03 10:31N 36°07' W 005°18'0 0.0
2016-Feb-03 08:18N 36°07' W 005°18'0 0.0
2016-Feb-03 07:33N 36°07' W 005°18'0 0.0
2016-Feb-03 06:26N 36°07' W 005°18'0 0.1
2016-Feb-03 05:32N 36°07' W 005°18'0 0.1
2016-Feb-03 04:31N 36°07' W 005°18'0 0.0
2016-Feb-03 03:31N 36°07' W 005°18'0 0.1
2016-Feb-03 02:33N 36°07' W 005°18'3 3.5
2016-Feb-03 01:33N 36°06' W 005°22'1 0.9
2016-Feb-03 00:31N 36°07' W 005°22'0 0.0
2016-Feb-02 23:24N 36°07' W 005°22'0 0.0
2016-Feb-02 22:30N 36°07' W 005°22'0 0.0
2016-Feb-02 21:32N 36°07' W 005°22'0 0.0
2016-Feb-02 15:12N 36°07' W 005°22'0 0.4
2016-Feb-02 14:33N 36°07' W 005°22'3 3.3
2016-Feb-02 13:33N 36°06' W 005°18'2 1.5
2016-Feb-02 12:26N 36°08' W 005°18'0 0.0
2016-Feb-02 11:32N 36°08' W 005°18'0 0.0
2016-Feb-02 10:31N 36°08' W 005°18'0 0.0
2016-Feb-02 09:30N 36°08' W 005°18'0 0.0
2016-Feb-02 07:33N 36°08' W 005°18'0 0.0
2016-Feb-02 06:33N 36°08' W 005°18'0 0.0
2016-Feb-02 05:32N 36°08' W 005°18'0 0.0
2016-Feb-02 02:31N 36°08' W 005°18'0 0.0
2016-Feb-02 01:34N 36°08' W 005°18'0 0.0
2016-Feb-02 00:33N 36°08' W 005°18'0 0.0
2016-Feb-01 23:24N 36°08' W 005°18'0 0.0
2016-Feb-01 22:32N 36°08' W 005°18'0 0.0
2016-Feb-01 21:17N 36°08' W 005°18'0 0.0
2016-Feb-01 20:28N 36°08' W 005°18'0 0.0
2016-Feb-01 19:31N 36°08' W 005°18'0 0.0
2016-Feb-01 18:30N 36°08' W 005°18'0 0.0
2016-Feb-01 17:15N 36°08' W 005°18'0 0.0
2016-Feb-01 16:05N 36°08' W 005°18'0 0.0
2016-Feb-01 15:32N 36°08' W 005°18'0 0.0
2016-Feb-01 14:29N 36°08' W 005°18'0 0.0
2016-Feb-01 13:31N 36°08' W 005°18'0 0.0
2016-Feb-01 12:28N 36°08' W 005°18'0 0.0
2016-Feb-01 10:24N 36°08' W 005°18'0 0.0
2016-Feb-01 08:32N 36°08' W 005°18'0 0.0
2016-Feb-01 07:32N 36°08' W 005°18'0 0.0
2016-Feb-01 06:31N 36°08' W 005°18'0 0.0
2016-Feb-01 05:31N 36°08' W 005°18'0 0.0
2016-Feb-01 04:33N 36°08' W 005°18'0 0.1
2016-Feb-01 03:33N 36°08' W 005°18'0 0.0
2016-Feb-01 02:33N 36°08' W 005°18'0 0.0
2016-Feb-01 01:32N 36°08' W 005°18'0 0.0
2016-Feb-01 00:29N 36°08' W 005°18'0 0.0
2016-Jan-31 23:19N 36°08' W 005°18'0 0.0
2016-Jan-31 22:19N 36°08' W 005°18'0 0.0
2016-Jan-31 21:33N 36°08' W 005°18'0 0.0
2016-Jan-31 20:33N 36°08' W 005°18'0 0.0
2016-Jan-31 19:30N 36°08' W 005°18'0 0.0
2016-Jan-31 18:32N 36°08' W 005°18'0 0.0
2016-Jan-31 17:32N 36°08' W 005°18'0 0.0
2016-Jan-31 16:22N 36°08' W 005°18'0 0.0
2016-Jan-31 15:28N 36°08' W 005°18'0 0.0
2016-Jan-31 14:30N 36°08' W 005°18'0 0.0
2016-Jan-31 13:33N 36°08' W 005°18'0 0.0
2016-Jan-31 12:33N 36°08' W 005°18'0 0.0
2016-Jan-31 11:26N 36°08' W 005°18'0 0.0
2016-Jan-31 10:32N 36°08' W 005°18'0 0.0
2016-Jan-31 09:31N 36°08' W 005°18'0 0.0
2016-Jan-31 08:28N 36°08' W 005°18'0 0.0
2016-Jan-31 05:14N 36°08' W 005°18'0 0.0
2016-Jan-31 04:32N 36°08' W 005°18'0 0.1
2016-Jan-31 03:32N 36°08' W 005°18'0 0.1
2016-Jan-31 02:31N 36°08' W 005°18'0 0.0
2016-Jan-31 01:28N 36°08' W 005°18'0 0.0
2016-Jan-31 00:33N 36°08' W 005°18'0 0.0
2016-Jan-30 23:33N 36°08' W 005°18'0 0.0
2016-Jan-30 22:32N 36°08' W 005°18'0 0.0
2016-Jan-30 21:23N 36°08' W 005°18'0 0.0
2016-Jan-30 20:32N 36°08' W 005°18'0 0.0
2016-Jan-30 19:31N 36°08' W 005°18'0 0.0
2016-Jan-30 18:28N 36°08' W 005°18'0 0.0
2016-Jan-30 16:33N 36°08' W 005°18'0 0.0
2016-Jan-30 15:32N 36°08' W 005°18'0 0.0
2016-Jan-30 14:26N 36°08' W 005°18'0 0.1
2016-Jan-30 13:32N 36°08' W 005°18'0 0.0
2016-Jan-30 12:25N 36°08' W 005°18'0 0.0
2016-Jan-30 11:31N 36°08' W 005°18'0 0.0
2016-Jan-30 10:33N 36°08' W 005°18'0 0.0
2016-Jan-30 09:33N 36°08' W 005°18'0 0.0
2016-Jan-30 08:32N 36°08' W 005°18'0 0.0
2016-Jan-30 07:32N 36°08' W 005°18'0 0.0
2016-Jan-30 06:32N 36°08' W 005°18'0 0.0
2016-Jan-30 05:31N 36°08' W 005°18'0 0.0
2016-Jan-30 04:22N 36°08' W 005°18'0 0.1
2016-Jan-30 03:33N 36°08' W 005°18'0 0.1
2016-Jan-30 02:33N 36°08' W 005°18'0 0.0
2016-Jan-30 01:29N 36°08' W 005°18'0 0.0
2016-Jan-30 00:32N 36°08' W 005°18'0 0.0
2016-Jan-29 23:32N 36°08' W 005°18'0 0.0
2016-Jan-29 22:31N 36°08' W 005°18'0 0.0
2016-Jan-29 21:31N 36°08' W 005°18'0 0.0
2016-Jan-29 20:30N 36°08' W 005°18'0 0.0
2016-Jan-29 19:27N 36°08' W 005°18'0 0.0
2016-Jan-29 18:32N 36°08' W 005°18'0 0.1
2016-Jan-29 17:26N 36°08' W 005°18'0 0.1
2016-Jan-29 16:25N 36°08' W 005°18'0 0.0
2016-Jan-29 15:31N 36°08' W 005°18'0 0.0
2016-Jan-29 14:28N 36°08' W 005°18'0 0.1
2016-Jan-29 13:27N 36°08' W 005°18'0 0.0
2016-Jan-29 12:24N 36°08' W 005°18'0 0.0
2016-Jan-29 11:08N 36°08' W 005°18'0 0.0
2016-Jan-29 10:32N 36°08' W 005°18'0 0.0
2016-Jan-29 09:28N 36°08' W 005°18'0 0.0
2016-Jan-29 07:31N 36°08' W 005°18'0 0.0
2016-Jan-29 06:33N 36°08' W 005°18'0 0.0
2016-Jan-29 05:30N 36°08' W 005°18'0 0.1
2016-Jan-29 04:32N 36°08' W 005°18'0 0.0
2016-Jan-29 03:32N 36°08' W 005°18'0 0.1
2016-Jan-29 02:22N 36°08' W 005°18'0 0.0
2016-Jan-29 01:31N 36°08' W 005°18'0 0.0
2016-Jan-29 00:31N 36°08' W 005°18'0 0.0
2016-Jan-28 23:33N 36°08' W 005°18'0 0.0
2016-Jan-28 22:30N 36°08' W 005°18'0 0.1
2016-Jan-28 21:32N 36°08' W 005°18'0 0.0
2016-Jan-28 20:32N 36°08' W 005°18'0 0.0
2016-Jan-28 19:19N 36°08' W 005°18'0 0.0
2016-Jan-28 18:28N 36°08' W 005°18'0 0.0
2016-Jan-28 17:31N 36°08' W 005°18'0 0.0
2016-Jan-28 15:33N 36°08' W 005°18'  
Track history (hours):
 
Tides and Currents Weather Stations Pressure Air Temp Water Temp Dewpoint Dewpoint Depression Visibility Wind Speed Wind Dir Waves Ship Positions

Zaliv Vostok

Last reported at 2016-Feb-07 15:28 UTC. Time now 2016-Feb-14 03:49 UTC.
Position N 41°54' W 009°57'.

Length 243 m; draft 14.8 m.

Type: Tanker. MMSI: 636014127.

Date/timePositionNaut miles runAvg speedWind from/ knotsBaromVisibWave heightAir tempDewpointWater temp
2016-Feb-07 15:28N 41°54' W 009°57'8 8.5
2016-Feb-07 14:31N 41°46' W 009°56'11 9.0
2016-Feb-07 13:19N 41°35' W 009°56'7 8.8
2016-Feb-07 12:31N 41°28' W 009°57'9 8.5
2016-Feb-07 11:28N 41°19' W 009°57'8 8.4
2016-Feb-07 10:31N 41°11' W 009°57'9 8.8
2016-Feb-07 09:31N 41°02' W 009°56'10 9.6
2016-Feb-07 08:31N 40°53' W 009°57'19 9.2
2016-Feb-07 06:28N 40°34' W 009°57'9 9.2
2016-Feb-07 05:31N 40°25' W 009°57'10 9.5
2016-Feb-07 04:31N 40°16' W 009°57'10 9.7
2016-Feb-07 03:31N 40°06' W 009°57'10 9.9
2016-Feb-07 02:28N 39°56' W 009°57'2010.2
2016-Feb-07 00:33N 39°36' W 009°57'10 9.7
2016-Feb-06 23:30N 39°26' W 009°57'1010.9
2016-Feb-06 22:33N 39°15' W 009°57'1110.9
2016-Feb-06 21:33N 39°05' W 009°56'1111.2
2016-Feb-06 20:33N 38°53' W 009°56'1211.6
2016-Feb-06 19:33N 38°42' W 009°56'1211.8
2016-Feb-06 18:33N 38°30' W 009°53'1212.4
2016-Feb-06 17:33N 38°18' W 009°49'1513.4
2016-Feb-06 16:28N 38°04' W 009°45'1111.6
2016-Feb-06 15:30N 37°53' W 009°42'1212.6
2016-Feb-06 14:32N 37°41' W 009°38'1413.7
2016-Feb-06 13:31N 37°28' W 009°34'1312.4
2016-Feb-06 12:28N 37°15' W 009°31'1313.1
2016-Feb-06 11:28N 37°02' W 009°27'1212.3
2016-Feb-06 10:31N 36°51' W 009°24'1312.8
2016-Feb-06 09:31N 36°42' W 009°13'1211.7
2016-Feb-06 08:28N 36°39' W 008°58'1111.5
2016-Feb-06 07:29N 36°37' W 008°44'1313.0
2016-Feb-06 06:31N 36°35' W 008°29'1312.7
2016-Feb-06 05:31N 36°31' W 008°14'13412.1
2016-Feb-05 18:23N 35°59' W 005°32'8 9.8
2016-Feb-05 17:33N 36°02' W 005°23'14 3.6
2016-Feb-05 13:33N 35°54' W 005°08'2 1.8
2016-Feb-05 12:30N 35°56' W 005°08'2 1.6
2016-Feb-05 11:29N 35°57' W 005°08'1 1.5
2016-Feb-05 10:32N 35°59' W 005°08'1 1.2
2016-Feb-05 09:25N 36°00' W 005°09'1 1.2
2016-Feb-05 08:30N 36°01' W 005°09'1 1.1
2016-Feb-05 07:33N 36°02' W 005°10'1 1.0
2016-Feb-05 06:33N 36°03' W 005°10'0 0.4
2016-Feb-05 05:33N 36°03' W 005°11'1 0.7
2016-Feb-05 04:32N 36°03' W 005°10'1 0.7
2016-Feb-05 03:33N 36°04' W 005°09'1 0.7
2016-Feb-05 02:33N 36°04' W 005°09'1 0.9
2016-Feb-05 01:33N 36°05' W 005°09'1 0.6
2016-Feb-05 00:33N 36°06' W 005°09'1 0.6
2016-Feb-04 23:32N 36°06' W 005°09'1 0.6
2016-Feb-04 22:24N 36°07' W 005°09'0 0.1
2016-Feb-04 21:33N 36°07' W 005°09'0 0.3
2016-Feb-04 20:20N 36°07' W 005°09'1 0.8
2016-Feb-04 19:21N 36°06' W 005°08'4 0.3
2016-Feb-04 08:33N 36°07' W 005°12'5 4.2
2016-Feb-04 07:28N 36°07' W 005°18'0 0.0
2016-Feb-04 06:28N 36°07' W 005°18'0 0.0
2016-Feb-04 05:33N 36°07' W 005°18'0 0.0
2016-Feb-04 04:33N 36°07' W 005°18'0 0.0
2016-Feb-04 03:32N 36°07' W 005°18'0 0.0
2016-Feb-04 02:32N 36°07' W 005°18'0 0.0
2016-Feb-04 01:32N 36°07' W 005°18'0 0.0
2016-Feb-04 00:31N 36°07' W 005°18'0 0.0
2016-Feb-03 23:31N 36°07' W 005°18'0 0.0
2016-Feb-03 22:30N 36°07' W 005°18'0 0.0
2016-Feb-03 21:33N 36°07' W 005°18'0 0.0
2016-Feb-03 20:32N 36°07' W 005°18'0 0.0
2016-Feb-03 19:29N 36°07' W 005°18'0 0.0
2016-Feb-03 18:32N 36°07' W 005°18'0 0.1
2016-Feb-03 17:31N 36°07' W 005°18'0 0.0
2016-Feb-03 16:31N 36°07' W 005°18'0 0.0
2016-Feb-03 15:33N 36°07' W 005°18'0 0.0
2016-Feb-03 13:20N 36°07' W 005°18'0 0.0
2016-Feb-03 12:23N 36°07' W 005°18'0 0.1
2016-Feb-03 11:32N 36°07' W 005°18'0 0.0
2016-Feb-03 10:31N 36°07' W 005°18'0 0.0
2016-Feb-03 08:18N 36°07' W 005°18'0 0.0
2016-Feb-03 07:33N 36°07' W 005°18'0 0.0
2016-Feb-03 06:26N 36°07' W 005°18'0 0.1
2016-Feb-03 05:32N 36°07' W 005°18'0 0.1
2016-Feb-03 04:31N 36°07' W 005°18'0 0.0
2016-Feb-03 03:31N 36°07' W 005°18'0 0.1
2016-Feb-03 02:33N 36°07' W 005°18'3 3.5
2016-Feb-03 01:33N 36°06' W 005°22'1 0.9
2016-Feb-03 00:31N 36°07' W 005°22'0 0.0
2016-Feb-02 23:24N 36°07' W 005°22'0 0.0
2016-Feb-02 22:30N 36°07' W 005°22'0 0.0
2016-Feb-02 21:32N 36°07' W 005°22'0 0.0
2016-Feb-02 15:12N 36°07' W 005°22'0 0.4
2016-Feb-02 14:33N 36°07' W 005°22'3 3.3
2016-Feb-02 13:33N 36°06' W 005°18'2 1.5
2016-Feb-02 12:26N 36°08' W 005°18'0 0.0
2016-Feb-02 11:32N 36°08' W 005°18'0 0.0
2016-Feb-02 10:31N 36°08' W 005°18'0 0.0
2016-Feb-02 09:30N 36°08' W 005°18'0 0.0
2016-Feb-02 07:33N 36°08' W 005°18'0 0.0
2016-Feb-02 06:33N 36°08' W 005°18'0 0.0
2016-Feb-02 05:32N 36°08' W 005°18'0 0.0
2016-Feb-02 02:31N 36°08' W 005°18'0 0.0
2016-Feb-02 01:34N 36°08' W 005°18'0 0.0
2016-Feb-02 00:33N 36°08' W 005°18'0 0.0
2016-Feb-01 23:24N 36°08' W 005°18'0 0.0
2016-Feb-01 22:32N 36°08' W 005°18'0 0.0
2016-Feb-01 21:17N 36°08' W 005°18'0 0.0
2016-Feb-01 20:28N 36°08' W 005°18'0 0.0
2016-Feb-01 19:31N 36°08' W 005°18'0 0.0
2016-Feb-01 18:30N 36°08' W 005°18'0 0.0
2016-Feb-01 17:15N 36°08' W 005°18'0 0.0
2016-Feb-01 16:05N 36°08' W 005°18'0 0.0
2016-Feb-01 15:32N 36°08' W 005°18'0 0.0
2016-Feb-01 14:29N 36°08' W 005°18'0 0.0
2016-Feb-01 13:31N 36°08' W 005°18'0 0.0
2016-Feb-01 12:28N 36°08' W 005°18'0 0.0
2016-Feb-01 10:24N 36°08' W 005°18'0 0.0
2016-Feb-01 08:32N 36°08' W 005°18'0 0.0
2016-Feb-01 07:32N 36°08' W 005°18'0 0.0
2016-Feb-01 06:31N 36°08' W 005°18'0 0.0
2016-Feb-01 05:31N 36°08' W 005°18'0 0.0
2016-Feb-01 04:33N 36°08' W 005°18'0 0.1
2016-Feb-01 03:33N 36°08' W 005°18'0 0.0
2016-Feb-01 02:33N 36°08' W 005°18'0 0.0
2016-Feb-01 01:32N 36°08' W 005°18'0 0.0
2016-Feb-01 00:29N 36°08' W 005°18'0 0.0
2016-Jan-31 23:19N 36°08' W 005°18'0 0.0
2016-Jan-31 22:19N 36°08' W 005°18'0 0.0
2016-Jan-31 21:33N 36°08' W 005°18'0 0.0
2016-Jan-31 20:33N 36°08' W 005°18'0 0.0
2016-Jan-31 19:30N 36°08' W 005°18'0 0.0
2016-Jan-31 18:32N 36°08' W 005°18'0 0.0
2016-Jan-31 17:32N 36°08' W 005°18'0 0.0
2016-Jan-31 16:22N 36°08' W 005°18'0 0.0
2016-Jan-31 15:28N 36°08' W 005°18'0 0.0
2016-Jan-31 14:30N 36°08' W 005°18'0 0.0
2016-Jan-31 13:33N 36°08' W 005°18'0 0.0
2016-Jan-31 12:33N 36°08' W 005°18'0 0.0
2016-Jan-31 11:26N 36°08' W 005°18'0 0.0
2016-Jan-31 10:32N 36°08' W 005°18'0 0.0
2016-Jan-31 09:31N 36°08' W 005°18'0 0.0
2016-Jan-31 08:28N 36°08' W 005°18'0 0.0
2016-Jan-31 05:14N 36°08' W 005°18'0 0.0
2016-Jan-31 04:32N 36°08' W 005°18'0 0.1
2016-Jan-31 03:32N 36°08' W 005°18'0 0.1
2016-Jan-31 02:31N 36°08' W 005°18'0 0.0
2016-Jan-31 01:28N 36°08' W 005°18'0 0.0
2016-Jan-31 00:33N 36°08' W 005°18'0 0.0
2016-Jan-30 23:33N 36°08' W 005°18'0 0.0
2016-Jan-30 22:32N 36°08' W 005°18'0 0.0
2016-Jan-30 21:23N 36°08' W 005°18'0 0.0
2016-Jan-30 20:32N 36°08' W 005°18'0 0.0
2016-Jan-30 19:31N 36°08' W 005°18'0 0.0
2016-Jan-30 18:28N 36°08' W 005°18'0 0.0
2016-Jan-30 16:33N 36°08' W 005°18'0 0.0
2016-Jan-30 15:32N 36°08' W 005°18'0 0.0
2016-Jan-30 14:26N 36°08' W 005°18'0 0.1
2016-Jan-30 13:32N 36°08' W 005°18'0 0.0
2016-Jan-30 12:25N 36°08' W 005°18'0 0.0
2016-Jan-30 11:31N 36°08' W 005°18'0 0.0
2016-Jan-30 10:33N 36°08' W 005°18'0 0.0
2016-Jan-30 09:33N 36°08' W 005°18'0 0.0
2016-Jan-30 08:32N 36°08' W 005°18'0 0.0
2016-Jan-30 07:32N 36°08' W 005°18'0 0.0
2016-Jan-30 06:32N 36°08' W 005°18'0 0.0
2016-Jan-30 05:31N 36°08' W 005°18'0 0.0
2016-Jan-30 04:22N 36°08' W 005°18'0 0.1
2016-Jan-30 03:33N 36°08' W 005°18'0 0.1
2016-Jan-30 02:33N 36°08' W 005°18'0 0.0
2016-Jan-30 01:29N 36°08' W 005°18'0 0.0
2016-Jan-30 00:32N 36°08' W 005°18'0 0.0
2016-Jan-29 23:32N 36°08' W 005°18'0 0.0
2016-Jan-29 22:31N 36°08' W 005°18'0 0.0
2016-Jan-29 21:31N 36°08' W 005°18'0 0.0
2016-Jan-29 20:30N 36°08' W 005°18'0 0.0
2016-Jan-29 19:27N 36°08' W 005°18'0 0.0
2016-Jan-29 18:32N 36°08' W 005°18'0 0.1
2016-Jan-29 17:26N 36°08' W 005°18'0 0.1
2016-Jan-29 16:25N 36°08' W 005°18'0 0.0
2016-Jan-29 15:31N 36°08' W 005°18'0 0.0
2016-Jan-29 14:28N 36°08' W 005°18'0 0.1
2016-Jan-29 13:27N 36°08' W 005°18'0 0.0
2016-Jan-29 12:24N 36°08' W 005°18'0 0.0
2016-Jan-29 11:08N 36°08' W 005°18'0 0.0
2016-Jan-29 10:32N 36°08' W 005°18'0 0.0
2016-Jan-29 09:28N 36°08' W 005°18'0 0.0
2016-Jan-29 07:31N 36°08' W 005°18'0 0.0
2016-Jan-29 06:33N 36°08' W 005°18'0 0.0
2016-Jan-29 05:30N 36°08' W 005°18'0 0.1
2016-Jan-29 04:32N 36°08' W 005°18'0 0.0
2016-Jan-29 03:32N 36°08' W 005°18'0 0.1
2016-Jan-29 02:22N 36°08' W 005°18'0 0.0
2016-Jan-29 01:31N 36°08' W 005°18'0 0.0
2016-Jan-29 00:31N 36°08' W 005°18'0 0.0
2016-Jan-28 23:33N 36°08' W 005°18'0 0.0
2016-Jan-28 22:30N 36°08' W 005°18'0 0.1
2016-Jan-28 21:32N 36°08' W 005°18'0 0.0
2016-Jan-28 20:32N 36°08' W 005°18'0 0.0
2016-Jan-28 19:19N 36°08' W 005°18'0 0.0
2016-Jan-28 18:28N 36°08' W 005°18'0 0.0
2016-Jan-28 17:31N 36°08' W 005°18'0 0.0
2016-Jan-28 15:33N 36°08' W 005°18'  

Dump ship's entire track history